sensor_id;sensor_type;location;lat;lon;timestamp;pressure;altitude;pressure_sealevel;temperature;humidity
16580;BME280;8402;51.466;6.806;2022-09-01T00:00:25;101750.41;;;21.66;45.17
16580;BME280;8402;51.466;6.806;2022-09-01T00:02:56;101742.56;;;21.68;45.24
16580;BME280;8402;51.466;6.806;2022-09-01T00:05:24;101747.69;;;21.70;45.00
16580;BME280;8402;51.466;6.806;2022-09-01T00:07:54;101746.19;;;21.73;45.22
16580;BME280;8402;51.466;6.806;2022-09-01T00:10:23;101751.72;;;21.73;45.01
16580;BME280;8402;51.466;6.806;2022-09-01T00:12:51;101749.38;;;21.75;45.13
16580;BME280;8402;51.466;6.806;2022-09-01T00:15:23;101748.97;;;21.73;45.29
16580;BME280;8402;51.466;6.806;2022-09-01T00:17:55;101749.97;;;21.64;45.24
16580;BME280;8402;51.466;6.806;2022-09-01T00:20:23;101746.72;;;21.59;45.46
16580;BME280;8402;51.466;6.806;2022-09-01T00:22:51;101749.03;;;21.57;45.63
16580;BME280;8402;51.466;6.806;2022-09-01T00:25:23;101755.19;;;21.50;45.78
16580;BME280;8402;51.466;6.806;2022-09-01T00:27:51;101745.63;;;21.44;45.87
16580;BME280;8402;51.466;6.806;2022-09-01T00:30:20;101754.19;;;21.39;46.09
16580;BME280;8402;51.466;6.806;2022-09-01T00:32:48;101753.31;;;21.35;45.90
16580;BME280;8402;51.466;6.806;2022-09-01T00:35:17;101749.25;;;21.29;46.20
16580;BME280;8402;51.466;6.806;2022-09-01T00:37:46;101740.78;;;21.22;45.89
16580;BME280;8402;51.466;6.806;2022-09-01T00:40:16;101751.38;;;21.20;46.42
16580;BME280;8402;51.466;6.806;2022-09-01T00:42:46;101745.72;;;21.12;46.04
16580;BME280;8402;51.466;6.806;2022-09-01T00:45:15;101748.75;;;21.07;46.51
16580;BME280;8402;51.466;6.806;2022-09-01T00:47:47;101744.75;;;21.05;46.81
16580;BME280;8402;51.466;6.806;2022-09-01T00:50:17;101740.78;;;21.02;46.55
16580;BME280;8402;51.466;6.806;2022-09-01T00:52:49;101747.00;;;20.99;47.26
16580;BME280;8402;51.466;6.806;2022-09-01T00:55:23;101739.03;;;20.94;47.62
16580;BME280;8402;51.466;6.806;2022-09-01T00:57:54;101741.25;;;20.88;46.83
16580;BME280;8402;51.466;6.806;2022-09-01T01:00:24;101741.25;;;20.88;47.13
16580;BME280;8402;51.466;6.806;2022-09-01T01:02:53;101741.97;;;20.85;47.29
16580;BME280;8402;51.466;6.806;2022-09-01T01:05:23;101737.19;;;20.82;47.31
16580;BME280;8402;51.466;6.806;2022-09-01T01:07:54;101731.66;;;20.82;47.55
16580;BME280;8402;51.466;6.806;2022-09-01T01:10:23;101736.81;;;20.84;47.54
16580;BME280;8402;51.466;6.806;2022-09-01T01:12:53;101729.00;;;20.86;47.49
16580;BME280;8402;51.466;6.806;2022-09-01T01:15:22;101736.53;;;20.89;47.36
16580;BME280;8402;51.466;6.806;2022-09-01T01:17:50;101727.09;;;20.90;47.50
16580;BME280;8402;51.466;6.806;2022-09-01T01:20:19;101731.03;;;20.89;47.55
16580;BME280;8402;51.466;6.806;2022-09-01T01:23:11;101734.56;;;20.89;47.72
16580;BME280;8402;51.466;6.806;2022-09-01T01:25:47;101729.84;;;20.90;47.46
16580;BME280;8402;51.466;6.806;2022-09-01T01:28:17;101728.69;;;20.91;47.67
16580;BME280;8402;51.466;6.806;2022-09-01T01:30:48;101736.59;;;20.93;47.70
16580;BME280;8402;51.466;6.806;2022-09-01T01:33:19;101728.69;;;20.91;47.50
16580;BME280;8402;51.466;6.806;2022-09-01T01:35:49;101732.25;;;20.92;47.84
16580;BME280;8402;51.466;6.806;2022-09-01T01:38:18;101733.78;;;20.89;47.86
16580;BME280;8402;51.466;6.806;2022-09-01T01:40:51;101730.22;;;20.88;48.19
16580;BME280;8402;51.466;6.806;2022-09-01T01:43:20;101734.50;;;20.86;48.07
16580;BME280;8402;51.466;6.806;2022-09-01T01:45:51;101735.59;;;20.81;47.83
16580;BME280;8402;51.466;6.806;2022-09-01T01:48:21;101741.72;;;20.75;47.91
16580;BME280;8402;51.466;6.806;2022-09-01T01:50:51;101743.53;;;20.67;48.65
16580;BME280;8402;51.466;6.806;2022-09-01T01:53:21;101747.72;;;20.61;48.70
16580;BME280;8402;51.466;6.806;2022-09-01T01:55:51;101756.19;;;20.52;48.55
16580;BME280;8402;51.466;6.806;2022-09-01T01:58:21;101753.69;;;20.47;48.85
16580;BME280;8402;51.466;6.806;2022-09-01T02:00:52;101755.22;;;20.45;49.00
16580;BME280;8402;51.466;6.806;2022-09-01T02:03:23;101756.66;;;20.42;48.65
16580;BME280;8402;51.466;6.806;2022-09-01T02:05:54;101754.91;;;20.34;48.81
16580;BME280;8402;51.466;6.806;2022-09-01T02:08:23;101757.22;;;20.32;49.07
16580;BME280;8402;51.466;6.806;2022-09-01T02:10:54;101748.41;;;20.26;48.84
16580;BME280;8402;51.466;6.806;2022-09-01T02:13:23;101760.16;;;20.23;48.92
16580;BME280;8402;51.466;6.806;2022-09-01T02:16:00;101751.34;;;20.18;48.98
16580;BME280;8402;51.466;6.806;2022-09-01T02:18:32;101763.09;;;20.15;49.92
16580;BME280;8402;51.466;6.806;2022-09-01T02:21:03;101761.47;;;20.14;49.19
16580;BME280;8402;51.466;6.806;2022-09-01T02:23:42;101759.00;;;20.09;49.12
16580;BME280;8402;51.466;6.806;2022-09-01T02:26:11;101765.31;;;20.09;49.24
16580;BME280;8402;51.466;6.806;2022-09-01T02:28:45;101763.22;;;20.06;49.33
16580;BME280;8402;51.466;6.806;2022-09-01T02:31:22;101764.31;;;20.01;49.66
16580;BME280;8402;51.466;6.806;2022-09-01T02:33:50;101764.31;;;20.01;49.62
16580;BME280;8402;51.466;6.806;2022-09-01T02:36:21;101759.50;;;19.98;49.65
16580;BME280;8402;51.466;6.806;2022-09-01T02:38:51;101760.56;;;19.94;49.98
16580;BME280;8402;51.466;6.806;2022-09-01T02:41:23;101757.03;;;19.93;49.77
16580;BME280;8402;51.466;6.806;2022-09-01T02:43:55;101753.78;;;19.91;50.40
16580;BME280;8402;51.466;6.806;2022-09-01T02:46:28;101759.31;;;19.91;50.04
16580;BME280;8402;51.466;6.806;2022-09-01T02:48:57;101750.25;;;19.91;50.13
16580;BME280;8402;51.466;6.806;2022-09-01T02:51:26;101753.44;;;19.93;50.14
16580;BME280;8402;51.466;6.806;2022-09-01T02:53:55;101755.88;;;19.94;50.22
16580;BME280;8402;51.466;6.806;2022-09-01T02:56:25;101753.53;;;19.96;50.20
16580;BME280;8402;51.466;6.806;2022-09-01T02:58:54;101748.28;;;19.91;50.06
16580;BME280;8402;51.466;6.806;2022-09-01T03:01:24;101752.19;;;19.90;50.25
16580;BME280;8402;51.466;6.806;2022-09-01T03:03:55;101742.69;;;19.88;50.30
16580;BME280;8402;51.466;6.806;2022-09-01T03:06:25;101752.19;;;19.90;50.49
16580;BME280;8402;51.466;6.806;2022-09-01T03:08:55;101745.81;;;19.86;50.48
16580;BME280;8402;51.466;6.806;2022-09-01T03:11:29;101748.09;;;19.84;50.61
16580;BME280;8402;51.466;6.806;2022-09-01T03:13:58;101749.69;;;19.85;50.81
16580;BME280;8402;51.466;6.806;2022-09-01T03:16:27;101751.31;;;19.86;50.48
16580;BME280;8402;51.466;6.806;2022-09-01T03:18:56;101764.72;;;19.88;50.26
16580;BME280;8402;51.466;6.806;2022-09-01T03:21:25;101762.34;;;19.86;50.60
16580;BME280;8402;51.466;6.806;2022-09-01T03:23:54;101757.50;;;19.83;50.42
16580;BME280;8402;51.466;6.806;2022-09-01T03:26:24;101758.22;;;19.80;50.16
16580;BME280;8402;51.466;6.806;2022-09-01T03:28:54;101762.03;;;19.75;50.62
16580;BME280;8402;51.466;6.806;2022-09-01T03:31:22;101768.50;;;19.67;50.70
16580;BME280;8402;51.466;6.806;2022-09-01T03:33:57;101761.75;;;19.65;50.98
16580;BME280;8402;51.466;6.806;2022-09-01T03:36:27;101764.03;;;19.63;50.77
16580;BME280;8402;51.466;6.806;2022-09-01T03:38:56;101763.22;;;19.62;51.01
16580;BME280;8402;51.466;6.806;2022-09-01T03:41:26;101765.91;;;19.59;50.85
16580;BME280;8402;51.466;6.806;2022-09-01T03:43:57;101758.28;;;19.56;50.79
16580;BME280;8402;51.466;6.806;2022-09-01T03:46:26;101763.81;;;19.56;51.08
16580;BME280;8402;51.466;6.806;2022-09-01T03:49:02;101757.66;;;19.46;51.18
16580;BME280;8402;51.466;6.806;2022-09-01T03:51:33;101756.72;;;19.42;51.41
16580;BME280;8402;51.466;6.806;2022-09-01T03:54:05;101749.19;;;19.39;51.51
16580;BME280;8402;51.466;6.806;2022-09-01T03:56:33;101752.66;;;19.36;51.37
16580;BME280;8402;51.466;6.806;2022-09-01T03:59:03;101753.31;;;19.33;51.52
16580;BME280;8402;51.466;6.806;2022-09-01T04:01:33;101759.19;;;19.32;51.38
16580;BME280;8402;51.466;6.806;2022-09-01T04:04:03;101750.38;;;19.26;51.84
16580;BME280;8402;51.466;6.806;2022-09-01T04:06:33;101752.78;;;19.28;51.63
16580;BME280;8402;51.466;6.806;2022-09-01T04:09:03;101753.47;;;19.24;51.70
16580;BME280;8402;51.466;6.806;2022-09-01T04:11:32;101750.16;;;19.19;51.74
16580;BME280;8402;51.466;6.806;2022-09-01T04:14:03;101745.81;;;19.18;52.12
16580;BME280;8402;51.466;6.806;2022-09-01T04:16:33;101752.25;;;19.10;52.12
16580;BME280;8402;51.466;6.806;2022-09-01T04:19:23;101752.03;;;19.03;52.09
16580;BME280;8402;51.466;6.806;2022-09-01T04:21:54;101747.22;;;19.00;52.39
16580;BME280;8402;51.466;6.806;2022-09-01T04:24:24;101757.78;;;18.97;52.56
16580;BME280;8402;51.466;6.806;2022-09-01T04:26:55;101756.97;;;18.97;52.56
16580;BME280;8402;51.466;6.806;2022-09-01T04:29:26;101761.22;;;18.94;52.73
16580;BME280;8402;51.466;6.806;2022-09-01T04:31:55;101753.41;;;18.96;52.47
16580;BME280;8402;51.466;6.806;2022-09-01T04:34:29;101757.78;;;18.97;52.28
16580;BME280;8402;51.466;6.806;2022-09-01T04:37:07;101756.63;;;18.98;52.64
16580;BME280;8402;51.466;6.806;2022-09-01T04:39:36;101758.22;;;19.00;52.69
16580;BME280;8402;51.466;6.806;2022-09-01T04:42:06;101748.84;;;19.01;52.74
16580;BME280;8402;51.466;6.806;2022-09-01T04:44:37;101753.19;;;19.02;52.51
16580;BME280;8402;51.466;6.806;2022-09-01T04:47:06;101749.16;;;18.99;52.79
16580;BME280;8402;51.466;6.806;2022-09-01T04:49:37;101752.72;;;19.00;52.35
16580;BME280;8402;51.466;6.806;2022-09-01T04:52:06;101749.53;;;18.97;53.01
16580;BME280;8402;51.466;6.806;2022-09-01T04:54:37;101748.38;;;18.98;52.67
16580;BME280;8402;51.466;6.806;2022-09-01T04:57:05;101762.47;;;18.97;52.78
16580;BME280;8402;51.466;6.806;2022-09-01T04:59:33;101755.81;;;18.98;52.61
16580;BME280;8402;51.466;6.806;2022-09-01T05:02:04;101751.81;;;18.95;53.17
16580;BME280;8402;51.466;6.806;2022-09-01T05:04:35;101762.25;;;18.90;52.87
16580;BME280;8402;51.466;6.806;2022-09-01T05:07:10;101757.78;;;18.85;52.89
16580;BME280;8402;51.466;6.806;2022-09-01T05:09:41;101761.59;;;18.81;53.42
16580;BME280;8402;51.466;6.806;2022-09-01T05:12:11;101766.06;;;18.73;53.32
16580;BME280;8402;51.466;6.806;2022-09-01T05:14:43;101771.44;;;18.69;53.42
16580;BME280;8402;51.466;6.806;2022-09-01T05:17:16;101773.56;;;18.64;53.52
16580;BME280;8402;51.466;6.806;2022-09-01T05:19:46;101766.38;;;18.59;53.53
16580;BME280;8402;51.466;6.806;2022-09-01T05:22:16;101763.13;;;18.57;53.53
16580;BME280;8402;51.466;6.806;2022-09-01T05:24:48;101768.53;;;18.54;53.62
16580;BME280;8402;51.466;6.806;2022-09-01T05:27:21;101766.94;;;18.53;53.54
16580;BME280;8402;51.466;6.806;2022-09-01T05:29:49;101768.06;;;18.39;53.83
16580;BME280;8402;51.466;6.806;2022-09-01T05:32:21;101768.88;;;18.40;53.84
16580;BME280;8402;51.466;6.806;2022-09-01T05:34:52;101769.09;;;18.35;54.42
16580;BME280;8402;51.466;6.806;2022-09-01T05:37:20;101770.22;;;18.34;54.24
16580;BME280;8402;51.466;6.806;2022-09-01T05:39:49;101777.00;;;18.36;54.21
16580;BME280;8402;51.466;6.806;2022-09-01T05:42:18;101771.72;;;18.31;54.71
16580;BME280;8402;51.466;6.806;2022-09-01T05:44:47;101781.13;;;18.30;54.35
16580;BME280;8402;51.466;6.806;2022-09-01T05:47:18;101772.38;;;18.28;54.23
16580;BME280;8402;51.466;6.806;2022-09-01T05:49:49;101771.72;;;18.31;54.49
16580;BME280;8402;51.466;6.806;2022-09-01T05:52:19;101773.31;;;18.32;54.40
16580;BME280;8402;51.466;6.806;2022-09-01T05:54:52;101779.28;;;18.34;54.70
16580;BME280;8402;51.466;6.806;2022-09-01T05:57:22;101771.03;;;18.34;54.69
16580;BME280;8402;51.466;6.806;2022-09-01T06:00:02;101771.03;;;18.34;54.33
16580;BME280;8402;51.466;6.806;2022-09-01T06:02:37;101769.88;;;18.35;54.92
16580;BME280;8402;51.466;6.806;2022-09-01T06:05:08;101772.63;;;18.35;54.94
16580;BME280;8402;51.466;6.806;2022-09-01T06:07:37;101778.94;;;18.36;55.40
16580;BME280;8402;51.466;6.806;2022-09-01T06:10:09;101785.25;;;18.36;55.43
16580;BME280;8402;51.466;6.806;2022-09-01T06:12:38;101784.31;;;18.32;55.27
16580;BME280;8402;51.466;6.806;2022-09-01T06:15:09;101777.22;;;18.31;55.04
16580;BME280;8402;51.466;6.806;2022-09-01T06:17:42;101787.50;;;18.34;55.45
16580;BME280;8402;51.466;6.806;2022-09-01T06:20:13;101788.00;;;18.36;55.86
16580;BME280;8402;51.466;6.806;2022-09-01T06:22:43;101781.59;;;18.45;55.07
16580;BME280;8402;51.466;6.806;2022-09-01T06:25:13;101785.25;;;18.61;55.09
16580;BME280;8402;51.466;6.806;2022-09-01T06:27:43;101773.38;;;18.81;55.00
16580;BME280;8402;51.466;6.806;2022-09-01T06:30:12;101776.56;;;19.08;54.73
16580;BME280;8402;51.466;6.806;2022-09-01T06:32:49;101779.97;;;19.29;54.33
16580;BME280;8402;51.466;6.806;2022-09-01T06:35:20;101783.34;;;19.50;53.93
16580;BME280;8402;51.466;6.806;2022-09-01T06:37:50;101780.06;;;19.73;53.73
16580;BME280;8402;51.466;6.806;2022-09-01T06:40:20;101782.69;;;19.97;52.97
16580;BME280;8402;51.466;6.806;2022-09-01T06:42:50;101780.69;;;20.26;52.79
16580;BME280;8402;51.466;6.806;2022-09-01T06:45:20;101782.94;;;20.52;51.94
16580;BME280;8402;51.466;6.806;2022-09-01T06:47:49;101778.03;;;20.77;51.58
16580;BME280;8402;51.466;6.806;2022-09-01T06:50:27;101778.66;;;21.05;51.29
16580;BME280;8402;51.466;6.806;2022-09-01T06:53:15;101771.47;;;21.36;50.73
16580;BME280;8402;51.466;6.806;2022-09-01T06:56:01;101769.75;;;21.47;49.73
16580;BME280;8402;51.466;6.806;2022-09-01T06:58:30;101771.09;;;21.76;50.12
16580;BME280;8402;51.466;6.806;2022-09-01T07:01:03;101776.66;;;21.99;49.81
16580;BME280;8402;51.466;6.806;2022-09-01T07:03:32;101777.19;;;22.28;49.54
16580;BME280;8402;51.466;6.806;2022-09-01T07:06:04;101770.06;;;22.49;49.39
16580;BME280;8402;51.466;6.806;2022-09-01T07:08:35;101777.56;;;22.72;48.45
16580;BME280;8402;51.466;6.806;2022-09-01T07:11:27;101771.19;;;22.94;47.56
16580;BME280;8402;51.466;6.806;2022-09-01T07:14:16;101772.69;;;23.18;47.63
16580;BME280;8402;51.466;6.806;2022-09-01T07:16:45;101770.53;;;23.34;47.46
16580;BME280;8402;51.466;6.806;2022-09-01T07:19:33;101777.75;;;23.43;46.16
16580;BME280;8402;51.466;6.806;2022-09-01T07:22:18;101768.00;;;23.56;46.16
16580;BME280;8402;51.466;6.806;2022-09-01T07:25:07;101768.38;;;23.84;45.69
16580;BME280;8402;51.466;6.806;2022-09-01T07:27:58;101767.03;;;24.08;45.48
16580;BME280;8402;51.466;6.806;2022-09-01T07:30:27;101757.78;;;24.34;44.89
16580;BME280;8402;51.466;6.806;2022-09-01T07:32:57;101761.56;;;24.63;44.68
16580;BME280;8402;51.466;6.806;2022-09-01T07:35:46;101754.59;;;24.87;43.76
16580;BME280;8402;51.466;6.806;2022-09-01T07:38:36;101757.03;;;24.99;43.38
16580;BME280;8402;51.466;6.806;2022-09-01T07:41:25;101759.16;;;25.17;42.88
16580;BME280;8402;51.466;6.806;2022-09-01T07:44:14;101761.16;;;25.27;42.54
16580;BME280;8402;51.466;6.806;2022-09-01T07:46:42;101764.44;;;25.43;42.56
16580;BME280;8402;51.466;6.806;2022-09-01T07:49:11;101761.72;;;25.65;41.45
16580;BME280;8402;51.466;6.806;2022-09-01T07:52:00;101755.38;;;25.68;41.32
16580;BME280;8402;51.466;6.806;2022-09-01T07:54:31;101764.94;;;25.74;40.10
16580;BME280;8402;51.466;6.806;2022-09-01T07:56:59;101760.63;;;25.94;41.04
16580;BME280;8402;51.466;6.806;2022-09-01T07:59:27;101758.66;;;26.13;40.29
16580;BME280;8402;51.466;6.806;2022-09-01T08:01:56;101756.69;;;26.24;39.62
16580;BME280;8402;51.466;6.806;2022-09-01T08:04:27;101761.06;;;26.46;39.57
16580;BME280;8402;51.466;6.806;2022-09-01T08:06:57;101761.84;;;26.57;39.02
16580;BME280;8402;51.466;6.806;2022-09-01T08:09:26;101761.03;;;26.68;39.06
16580;BME280;8402;51.466;6.806;2022-09-01T08:12:06;101769.75;;;26.87;38.75
16580;BME280;8402;51.466;6.806;2022-09-01T08:14:34;101757.38;;;27.03;38.57
16580;BME280;8402;51.466;6.806;2022-09-01T08:17:02;101762.56;;;27.11;37.87
16580;BME280;8402;51.466;6.806;2022-09-01T08:19:51;101764.91;;;27.20;37.60
16580;BME280;8402;51.466;6.806;2022-09-01T08:22:21;101764.41;;;27.43;37.72
16580;BME280;8402;51.466;6.806;2022-09-01T08:24:51;101764.31;;;27.64;37.72
16580;BME280;8402;51.466;6.806;2022-09-01T08:27:22;101759.88;;;27.78;36.73
16580;BME280;8402;51.466;6.806;2022-09-01T08:29:50;101769.44;;;27.77;35.85
16580;BME280;8402;51.466;6.806;2022-09-01T08:32:18;101774.94;;;27.91;36.43
16580;BME280;8402;51.466;6.806;2022-09-01T08:34:48;101768.56;;;27.94;35.71
16580;BME280;8402;51.466;6.806;2022-09-01T08:37:16;101764.50;;;28.02;35.98
16580;BME280;8402;51.466;6.806;2022-09-01T08:39:44;101763.63;;;28.16;35.67
16580;BME280;8402;51.466;6.806;2022-09-01T08:42:21;101762.69;;;28.33;34.58
16580;BME280;8402;51.466;6.806;2022-09-01T08:45:03;101757.84;;;28.41;34.76
16580;BME280;8402;51.466;6.806;2022-09-01T08:47:36;101756.31;;;28.33;33.99
16580;BME280;8402;51.466;6.806;2022-09-01T08:50:25;101758.78;;;28.23;34.75
16580;BME280;8402;51.466;6.806;2022-09-01T08:52:57;101765.06;;;28.38;34.63
16580;BME280;8402;51.466;6.806;2022-09-01T08:55:39;101749.78;;;28.50;34.24
16580;BME280;8402;51.466;6.806;2022-09-01T08:58:09;101758.47;;;28.59;34.67
16580;BME280;8402;51.466;6.806;2022-09-01T09:00:43;101765.78;;;28.46;32.00
16580;BME280;8402;51.466;6.806;2022-09-01T09:03:22;101759.09;;;28.36;32.95
16580;BME280;8402;51.466;6.806;2022-09-01T09:06:12;101752.25;;;28.41;32.58
16580;BME280;8402;51.466;6.806;2022-09-01T09:08:54;101755.34;;;28.54;33.75
16580;BME280;8402;51.466;6.806;2022-09-01T09:11:36;101750.41;;;28.68;33.08
16580;BME280;8402;51.466;6.806;2022-09-01T09:14:11;101747.97;;;28.70;32.09
16580;BME280;8402;51.466;6.806;2022-09-01T09:16:45;101745.47;;;28.83;32.98
16580;BME280;8402;51.466;6.806;2022-09-01T09:19:22;101754.41;;;29.05;32.70
16580;BME280;8402;51.466;6.806;2022-09-01T09:21:53;101740.34;;;29.16;32.79
16580;BME280;8402;51.466;6.806;2022-09-01T09:24:26;101735.34;;;29.30;32.00
16580;BME280;8402;51.466;6.806;2022-09-01T09:27:05;101732.28;;;29.52;32.88
16580;BME280;8402;51.466;6.806;2022-09-01T09:29:36;101731.91;;;29.77;32.26
16580;BME280;8402;51.466;6.806;2022-09-01T09:32:08;101728.78;;;29.98;31.99
16580;BME280;8402;51.466;6.806;2022-09-01T09:35:17;101725.88;;;30.05;31.33
16580;BME280;8402;51.466;6.806;2022-09-01T09:37:46;101728.47;;;30.20;31.59
16580;BME280;8402;51.466;6.806;2022-09-01T09:40:16;101723.72;;;30.17;30.78
16580;BME280;8402;51.466;6.806;2022-09-01T09:43:04;101724.09;;;29.92;29.30
16580;BME280;8402;51.466;6.806;2022-09-01T09:45:37;101709.63;;;29.97;30.34
16580;BME280;8402;51.466;6.806;2022-09-01T09:48:26;101715.13;;;30.04;29.53
16580;BME280;8402;51.466;6.806;2022-09-01T09:50:54;101718.19;;;30.13;30.20
16580;BME280;8402;51.466;6.806;2022-09-01T09:53:26;101709.75;;;30.17;29.83
16580;BME280;8402;51.466;6.806;2022-09-01T09:55:58;101712.06;;;29.95;29.75
16580;BME280;8402;51.466;6.806;2022-09-01T09:58:34;101725.53;;;29.76;28.39
16580;BME280;8402;51.466;6.806;2022-09-01T10:01:07;101706.31;;;29.78;29.38
16580;BME280;8402;51.466;6.806;2022-09-01T10:03:46;101700.25;;;29.83;29.55
16580;BME280;8402;51.466;6.806;2022-09-01T10:06:30;101703.13;;;30.03;30.11
16580;BME280;8402;51.466;6.806;2022-09-01T10:09:00;101691.72;;;30.18;29.46
16580;BME280;8402;51.466;6.806;2022-09-01T10:11:33;101680.91;;;29.93;28.93
16580;BME280;8402;51.466;6.806;2022-09-01T10:14:13;101696.31;;;30.04;29.45
16580;BME280;8402;51.466;6.806;2022-09-01T10:17:13;101699.22;;;30.24;29.80
16580;BME280;8402;51.466;6.806;2022-09-01T10:19:50;101692.00;;;30.47;29.23
16580;BME280;8402;51.466;6.806;2022-09-01T10:22:20;101687.00;;;30.58;29.44
16580;BME280;8402;51.466;6.806;2022-09-01T10:24:49;101690.94;;;30.60;29.30
16580;BME280;8402;51.466;6.806;2022-09-01T10:27:20;101690.19;;;30.56;27.65
16580;BME280;8402;51.466;6.806;2022-09-01T10:29:55;101686.88;;;30.41;28.42
16580;BME280;8402;51.466;6.806;2022-09-01T10:32:46;101685.13;;;30.51;28.70
16580;BME280;8402;51.466;6.806;2022-09-01T10:35:25;101685.66;;;30.42;27.28
16580;BME280;8402;51.466;6.806;2022-09-01T10:37:56;101690.06;;;30.44;28.39
16580;BME280;8402;51.466;6.806;2022-09-01T10:40:37;101671.47;;;30.53;28.54
16580;BME280;8402;51.466;6.806;2022-09-01T10:43:34;101687.66;;;30.42;27.19
16580;BME280;8402;51.466;6.806;2022-09-01T10:51:57;101673.94;;;30.71;28.33
16580;BME280;8402;51.466;6.806;2022-09-01T10:54:54;101677.75;;;30.81;28.09
16580;BME280;8402;51.466;6.806;2022-09-01T10:57:47;101672.00;;;30.88;26.90
16580;BME280;8402;51.466;6.806;2022-09-01T11:00:50;101675.94;;;30.90;28.23
16580;BME280;8402;51.466;6.806;2022-09-01T11:03:50;101678.47;;;30.85;27.34
16580;BME280;8402;51.466;6.806;2022-09-01T11:07:02;101659.84;;;30.55;27.67
16580;BME280;8402;51.466;6.806;2022-09-01T11:09:41;101659.56;;;30.69;29.04
16580;BME280;8402;51.466;6.806;2022-09-01T11:15:35;101660.16;;;30.80;29.16
16580;BME280;8402;51.466;6.806;2022-09-01T11:18:10;101655.69;;;31.03;29.10
16580;BME280;8402;51.466;6.806;2022-09-01T11:20:45;101649.47;;;31.11;29.21
16580;BME280;8402;51.466;6.806;2022-09-01T11:23:22;101641.78;;;31.15;28.54
16580;BME280;8402;51.466;6.806;2022-09-01T11:25:54;101651.09;;;31.29;28.23
16580;BME280;8402;51.466;6.806;2022-09-01T11:28:46;101646.66;;;31.31;28.71
16580;BME280;8402;51.466;6.806;2022-09-01T11:31:29;101657.97;;;31.08;27.35
16580;BME280;8402;51.466;6.806;2022-09-01T11:34:15;101648.97;;;31.16;28.94
16580;BME280;8402;51.466;6.806;2022-09-01T11:36:53;101644.22;;;31.33;27.82
16580;BME280;8402;51.466;6.806;2022-09-01T11:39:40;101641.56;;;31.26;27.98
16580;BME280;8402;51.466;6.806;2022-09-01T11:42:17;101629.84;;;31.47;28.58
16580;BME280;8402;51.466;6.806;2022-09-01T11:44:49;101626.34;;;31.60;28.85
16580;BME280;8402;51.466;6.806;2022-09-01T11:47:23;101650.38;;;31.61;28.02
16580;BME280;8402;51.466;6.806;2022-09-01T11:49:54;101628.09;;;31.54;28.67
16580;BME280;8402;51.466;6.806;2022-09-01T11:52:27;101639.66;;;31.56;28.30
16580;BME280;8402;51.466;6.806;2022-09-01T11:54:59;101631.59;;;31.41;27.74
16580;BME280;8402;51.466;6.806;2022-09-01T11:57:30;101626.16;;;31.34;28.62
16580;BME280;8402;51.466;6.806;2022-09-01T12:00:00;101634.56;;;31.50;28.64
16580;BME280;8402;51.466;6.806;2022-09-01T12:02:31;101624.69;;;31.62;28.52
16580;BME280;8402;51.466;6.806;2022-09-01T12:05:23;101622.50;;;31.54;28.35
16580;BME280;8402;51.466;6.806;2022-09-01T12:07:52;101615.56;;;31.42;28.24
16580;BME280;8402;51.466;6.806;2022-09-01T12:10:29;101620.84;;;31.20;28.66
16580;BME280;8402;51.466;6.806;2022-09-01T12:13:03;101613.53;;;31.26;29.14
16580;BME280;8402;51.466;6.806;2022-09-01T12:15:33;101606.88;;;31.36;29.29
16580;BME280;8402;51.466;6.806;2022-09-01T12:18:14;101603.38;;;31.48;29.23
16580;BME280;8402;51.466;6.806;2022-09-01T12:20:46;101606.81;;;31.20;28.04
16580;BME280;8402;51.466;6.806;2022-09-01T12:23:18;101615.63;;;31.22;28.99
16580;BME280;8402;51.466;6.806;2022-09-01T12:25:52;101606.53;;;31.34;29.51
16580;BME280;8402;51.466;6.806;2022-09-01T12:28:22;101603.66;;;31.38;29.26
16580;BME280;8402;51.466;6.806;2022-09-01T12:30:57;101589.34;;;31.32;28.91
16580;BME280;8402;51.466;6.806;2022-09-01T12:33:27;101600.88;;;31.18;28.17
16580;BME280;8402;51.466;6.806;2022-09-01T12:36:14;101595.44;;;31.11;29.23
16580;BME280;8402;51.466;6.806;2022-09-01T12:38:43;101594.78;;;31.23;29.15
16580;BME280;8402;51.466;6.806;2022-09-01T12:41:34;101593.59;;;31.20;28.52
16580;BME280;8402;51.466;6.806;2022-09-01T12:44:27;101588.13;;;31.33;28.96
16580;BME280;8402;51.466;6.806;2022-09-01T12:46:58;101585.75;;;31.48;28.72
16580;BME280;8402;51.466;6.806;2022-09-01T12:49:34;101586.28;;;31.27;28.36
16580;BME280;8402;51.466;6.806;2022-09-01T12:52:20;101593.31;;;30.99;28.61
16580;BME280;8402;51.466;6.806;2022-09-01T12:54:53;101581.63;;;30.84;29.06
16580;BME280;8402;51.466;6.806;2022-09-01T12:57:26;101577.59;;;30.85;28.95
16580;BME280;8402;51.466;6.806;2022-09-01T13:00:07;101580.94;;;30.80;28.72
16580;BME280;8402;51.466;6.806;2022-09-01T13:02:37;101585.16;;;31.04;29.66
16580;BME280;8402;51.466;6.806;2022-09-01T13:05:20;101579.66;;;31.01;28.33
16580;BME280;8402;51.466;6.806;2022-09-01T13:07:58;101570.25;;;31.27;29.48
16580;BME280;8402;51.466;6.806;2022-09-01T13:10:31;101570.97;;;31.31;28.56
16580;BME280;8402;51.466;6.806;2022-09-01T13:13:01;101572.00;;;31.54;29.13
16580;BME280;8402;51.466;6.806;2022-09-01T13:15:29;101573.75;;;31.47;27.91
16580;BME280;8402;51.466;6.806;2022-09-01T13:17:58;101566.91;;;31.32;28.08
16580;BME280;8402;51.466;6.806;2022-09-01T13:20:26;101561.50;;;31.25;28.24
16580;BME280;8402;51.466;6.806;2022-09-01T13:22:54;101560.09;;;31.33;28.00
16580;BME280;8402;51.466;6.806;2022-09-01T13:25:23;101559.56;;;31.38;28.93
16580;BME280;8402;51.466;6.806;2022-09-01T13:27:52;101554.63;;;31.42;28.59
16580;BME280;8402;51.466;6.806;2022-09-01T13:30:24;101538.34;;;31.54;28.33
16580;BME280;8402;51.466;6.806;2022-09-01T13:32:55;101546.91;;;31.63;28.22
16580;BME280;8402;51.466;6.806;2022-09-01T13:35:43;101532.19;;;31.75;28.25
16580;BME280;8402;51.466;6.806;2022-09-01T13:38:11;101534.81;;;31.82;28.89
16580;BME280;8402;51.466;6.806;2022-09-01T13:40:42;101533.50;;;31.87;27.72
16580;BME280;8402;51.466;6.806;2022-09-01T13:43:11;101524.63;;;31.88;28.12